Time;durP1;ratioP1;P1;durP2;ratioP2;P2;SDS_P1;SDS_P2;PMS_P1;PMS_P2;Temp;Humidity;BMP_temperature;BMP_pressure;BME280_temperature;BME280_humidity;BME280_pressure;Samples;Min_cycle;Max_cycle;Signal;HPM_P1;HPM_P2
2022/12/14 00:05:37;;;;;;;26.50;20.00;;;-2.70;99.90;;;;;;2613751;54;20951;-75
2022/12/14 00:11:25;;;;;;;22.83;18.50;;;-2.60;99.90;;;;;;2613178;54;20419;-75
2022/12/14 00:17:14;;;;;;;26.50;19.30;;;-2.70;99.90;;;;;;2613939;54;20402;-74
2022/12/14 00:23:03;;;;;;;25.43;17.83;;;-2.60;99.90;;;;;;2613314;54;20932;-76
2022/12/14 00:28:52;;;;;;;24.47;17.50;;;-2.70;99.90;;;;;;2614088;39;20746;-75
2022/12/14 00:34:40;;;;;;;26.23;17.13;;;-2.70;99.90;;;;;;2611938;54;20499;-74
2022/12/14 00:40:28;;;;;;;19.67;17.03;;;-2.70;99.90;;;;;;2614174;54;20741;-75
2022/12/14 00:46:15;;;;;;;24.13;17.60;;;-2.90;99.90;;;;;;2613871;54;20145;-75
2022/12/14 00:52:03;;;;;;;22.70;16.67;;;-3.00;99.90;;;;;;2612836;54;20395;-76
2022/12/14 00:57:52;;;;;;;24.23;17.00;;;-3.10;99.90;;;;;;2612650;54;20172;-76
2022/12/14 01:01:05;;;;;;;23.60;17.50;;;-3.20;99.90;;;;;;2612889;54;20411;-75
2022/12/14 01:03:31;;;;;;;24.33;18.17;;;-3.20;99.90;;;;;;2613837;54;20530;-75
2022/12/14 01:09:20;;;;;;;22.40;15.53;;;-3.20;99.90;;;;;;2613384;54;20415;-75
2022/12/14 01:15:09;;;;;;;24.17;16.87;;;-3.40;99.90;;;;;;2612648;54;20406;-76
2022/12/14 01:27:31;;;;;;;28.47;19.37;;;-3.10;99.90;;;;;;2611729;54;20507;-75
2022/12/14 01:33:18;;;;;;;23.53;16.67;;;-3.00;99.90;;;;;;2612757;54;20247;-75
2022/12/14 01:45:20;;;;;;;27.97;17.47;;;-3.00;99.90;;;;;;2614086;54;20399;-74
2022/12/14 01:51:08;;;;;;;24.83;16.10;;;-3.00;99.90;;;;;;2613212;54;20382;-74
2022/12/14 01:56:59;;;;;;;35.40;17.83;;;-3.00;99.90;;;;;;2611595;54;20134;-75
2022/12/14 02:06:15;;;;;;;21.67;16.10;;;-3.20;99.90;;;;;;2612273;54;20407;-74
2022/12/14 02:12:11;;;;;;;23.20;15.63;;;-3.10;99.90;;;;;;2613421;54;20391;-76
2022/12/14 02:18:01;;;;;;;17.00;14.10;;;-3.30;99.90;;;;;;2614787;54;20403;-75
2022/12/14 02:23:49;;;;;;;17.00;13.80;;;-3.50;99.90;;;;;;2614721;39;20782;-75
2022/12/14 02:53:14;;;;;;;14.97;13.47;;;-3.30;99.90;;;;;;2612199;54;20395;-75
2022/12/14 02:55:46;;;;;;;16.23;13.20;;;-3.40;99.90;;;;;;2613427;47;20421;-75
2022/12/14 03:01:35;;;;;;;21.20;13.50;;;-3.50;99.90;;;;;;2613490;54;20431;-76
2022/12/14 03:13:56;;;;;;;17.63;13.33;;;-3.30;99.90;;;;;;2613709;54;20399;-75
2022/12/14 03:32:25;;;;;;;16.33;12.93;;;-3.00;99.90;;;;;;2614600;54;20410;-75
2022/12/14 03:45:07;;;;;;;12.40;11.20;;;-3.20;99.90;;;;;;2613775;54;20415;-73
2022/12/14 04:01:35;;;;;;;15.40;13.70;;;-3.30;99.90;;;;;;2614963;54;20439;-78
2022/12/14 04:35:52;;;;;;;12.20;11.00;;;-3.30;99.90;;;;;;2615305;39;20856;-75
2022/12/14 04:41:44;;;;;;;12.30;11.10;;;-3.30;99.90;;;;;;2614493;54;20410;-77
2022/12/14 04:47:37;;;;;;;15.80;11.80;;;-3.30;99.90;;;;;;2614870;54;20387;-79
2022/12/14 04:53:27;;;;;;;12.97;11.33;;;-3.40;99.90;;;;;;2614611;54;20383;-78
2022/12/14 04:59:14;;;;;;;14.20;11.10;;;-3.30;99.90;;;;;;2614334;54;20379;-78
2022/12/14 05:15:12;;;;;;;13.93;11.60;;;-3.50;99.90;;;;;;2615913;54;20899;-77
2022/12/14 05:21:01;;;;;;;13.10;11.53;;;-3.50;99.90;;;;;;2616463;54;20480;-78
2022/12/14 05:26:49;;;;;;;14.80;11.63;;;-3.50;99.90;;;;;;2616071;54;20972;-77
2022/12/14 05:32:36;;;;;;;14.17;11.90;;;-3.50;99.90;;;;;;2614821;54;20139;-78
2022/12/14 05:38:23;;;;;;;13.60;11.23;;;-3.50;99.90;;;;;;2614884;54;20150;-79
2022/12/14 05:44:10;;;;;;;14.60;12.67;;;-3.50;99.90;;;;;;2614585;54;20123;-78
2022/12/14 05:49:57;;;;;;;14.43;12.10;;;-3.60;99.90;;;;;;2614514;54;20390;-77
2022/12/14 05:55:49;;;;;;;15.10;11.93;;;-3.50;99.90;;;;;;2614934;46;20156;-79
2022/12/14 06:01:37;;;;;;;15.17;11.23;;;-3.40;99.90;;;;;;2613423;54;20431;-76
2022/12/14 06:07:27;;;;;;;19.90;12.70;;;-3.40;99.90;;;;;;2615016;54;20176;-77
2022/12/14 06:13:15;;;;;;;19.00;12.47;;;-3.30;99.90;;;;;;2615221;46;20382;-77
2022/12/14 06:19:04;;;;;;;13.13;11.50;;;-3.40;99.90;;;;;;2616193;54;20643;-76
2022/12/14 06:24:51;;;;;;;14.80;12.97;;;-3.40;99.90;;;;;;2615858;54;20419;-78
2022/12/14 06:30:40;;;;;;;14.57;12.33;;;-3.40;99.90;;;;;;2614761;54;20131;-78
2022/12/14 06:36:33;;;;;;;16.67;12.07;;;-3.40;99.90;;;;;;2616868;39;20755;-79
2022/12/14 06:42:22;;;;;;;15.13;11.63;;;-3.50;99.90;;;;;;2615959;54;20426;-77
2022/12/14 06:48:10;;;;;;;14.43;11.97;;;-3.50;99.90;;;;;;2616434;39;20720;-78
2022/12/14 06:53:58;;;;;;;16.10;11.50;;;-3.00;99.90;;;;;;2616613;54;20134;-78
2022/12/14 06:59:45;;;;;;;18.43;12.93;;;-3.00;99.90;;;;;;2615899;54;20134;-77
2022/12/14 07:08:58;;;;;;;14.80;12.03;;;-3.10;99.90;;;;;;2615877;54;20374;-80
2022/12/14 07:14:46;;;;;;;15.17;13.00;;;-3.20;99.90;;;;;;2617042;54;20519;-79
2022/12/14 07:20:34;;;;;;;16.90;13.13;;;-3.10;99.90;;;;;;2616354;54;20679;-77
2022/12/14 07:26:24;;;;;;;13.73;12.33;;;-3.10;99.90;;;;;;2616377;54;20150;-78
2022/12/14 07:32:12;;;;;;;23.50;15.70;;;-3.10;99.90;;;;;;2616575;54;20387;-78
2022/12/14 07:37:59;;;;;;;23.37;15.07;;;-3.10;99.90;;;;;;2615456;54;20604;-77
2022/12/14 07:43:49;;;;;;;16.43;13.77;;;-3.00;99.90;;;;;;2615991;54;20275;-79
2022/12/14 07:49:36;;;;;;;26.17;14.83;;;-2.90;99.90;;;;;;2615546;54;20378;-78
2022/12/14 07:55:26;;;;;;;20.63;15.40;;;-2.80;99.90;;;;;;2617198;54;20135;-79
2022/12/14 08:07:46;;;;;;;17.07;15.27;;;-2.80;99.90;;;;;;2616972;54;20407;-79
2022/12/14 08:13:37;;;;;;;17.93;13.30;;;-2.80;99.90;;;;;;2616968;54;20137;-79
2022/12/14 08:19:25;;;;;;;24.60;15.27;;;-2.70;99.90;;;;;;2616789;54;20427;-79
2022/12/14 08:25:13;;;;;;;16.90;13.87;;;-2.60;99.90;;;;;;2617381;39;20539;-77
2022/12/14 08:31:09;;;;;;;20.90;13.87;;;-2.60;99.90;;;;;;2617006;54;20135;-76
2022/12/14 08:36:58;;;;;;;18.77;13.70;;;-2.30;99.90;;;;;;2617113;54;20889;-78
2022/12/14 08:42:49;;;;;;;22.10;15.80;;;-2.30;99.90;;;;;;2616938;54;20392;-79
2022/12/14 08:45:52;;;;;;;21.20;13.53;;;-2.20;99.90;;;;;;2616791;54;20502;-78
2022/12/14 08:48:17;;;;;;;20.83;15.73;;;-2.20;99.90;;;;;;2615922;47;20391;-79
2022/12/14 08:54:05;;;;;;;17.57;14.97;;;-2.30;99.90;;;;;;2616624;46;20146;-81
2022/12/14 08:59:54;;;;;;;20.27;15.20;;;-2.20;99.90;;;;;;2616742;54;20130;-79
2022/12/14 09:05:42;;;;;;;16.00;13.73;;;-2.20;99.90;;;;;;2616802;54;20911;-78
2022/12/14 09:11:31;;;;;;;28.93;16.10;;;-2.20;99.90;;;;;;2616585;54;20486;-80
2022/12/14 09:17:19;;;;;;;22.33;14.63;;;-2.20;99.90;;;;;;2616720;46;20414;-80
2022/12/14 09:23:06;;;;;;;17.37;15.47;;;-2.20;99.90;;;;;;2616955;54;20142;-79
2022/12/14 09:28:55;;;;;;;26.73;17.07;;;-2.10;99.90;;;;;;2616460;54;20671;-77
2022/12/14 09:34:43;;;;;;;18.47;14.07;;;-2.10;99.90;;;;;;2616308;54;20422;-78
2022/12/14 09:40:32;;;;;;;17.67;15.87;;;-2.00;99.90;;;;;;2616517;54;20218;-80
2022/12/14 09:53:04;;;;;;;22.17;16.20;;;-1.80;99.90;;;;;;2616730;54;20398;-79
2022/12/14 09:58:56;;;;;;;16.20;14.50;;;-2.00;99.90;;;;;;2616683;54;20447;-78
2022/12/14 10:14:56;;;;;;;17.33;15.40;;;-1.80;99.90;;;;;;2616886;54;21216;-77
2022/12/14 10:27:25;;;;;;;25.03;17.70;;;-1.60;99.90;;;;;;2616717;54;20358;-80
2022/12/14 10:33:26;;;;;;;18.47;16.40;;;-1.30;99.90;;;;;;2617073;54;20439;-79
2022/12/14 10:46:15;;;;;;;19.00;16.93;;;-1.00;99.90;;;;;;2617201;54;20361;-79
2022/12/14 10:52:13;;;;;;;20.27;18.17;;;-0.90;99.90;;;;;;2616739;54;20374;-80
2022/12/14 10:58:01;;;;;;;21.13;18.93;;;-0.80;99.90;;;;;;2615922;54;20390;-79
2022/12/14 11:03:51;;;;;;;24.87;18.17;;;-0.80;99.90;;;;;;2616777;39;20749;-80
2022/12/14 11:23:43;;;;;;;29.70;20.13;;;-0.40;99.90;;;;;;2616221;39;20743;-79
2022/12/14 11:29:36;;;;;;;24.70;20.30;;;-0.40;99.90;;;;;;2617405;54;20410;-79
2022/12/14 11:35:24;;;;;;;22.30;19.50;;;-0.20;99.90;;;;;;2617248;39;20768;-80
2022/12/14 11:47:26;;;;;;;25.10;19.60;;;-0.30;99.90;;;;;;2617611;46;20820;-79
2022/12/14 11:53:17;;;;;;;22.77;17.80;;;0.00;99.90;;;;;;2616799;54;20129;-80
2022/12/14 11:59:04;;;;;;;23.70;17.67;;;0.20;99.90;;;;;;2617165;54;20944;-80
2022/12/14 12:14:55;;;;;;;32.00;25.50;;;0.50;99.90;;;;;;2615654;54;20379;-79
2022/12/14 12:21:04;;;;;;;24.13;20.60;;;0.80;99.90;;;;;;2615416;54;20381;-82
2022/12/14 12:40:14;;;;;;;19.83;17.87;;;4.80;27.20;;;;;;2614784;54;20412;-78
2022/12/14 12:52:24;;;;;;;22.80;20.50;;;6.50;18.50;;;;;;2616509;39;20766;-77
2022/12/14 13:04:57;;;;;;;18.47;16.87;;;7.70;15.70;;;;;;2614184;54;20371;-78
2022/12/14 13:20:51;;;;;;;17.23;16.00;;;5.10;13.40;;;;;;2614261;54;20358;-78
2022/12/14 13:26:46;;;;;;;20.03;18.20;;;6.20;14.10;;;;;;2614557;54;20493;-78
2022/12/14 13:39:15;;;;;;;19.23;17.43;;;3.80;16.90;;;;;;2614167;54;20367;-79
2022/12/14 13:48:31;;;;;;;21.00;18.93;;;4.30;17.00;;;;;;2612860;54;20417;-79
2022/12/14 13:57:41;;;;;;;22.30;17.80;;;5.10;16.00;;;;;;2613376;54;20868;-76
2022/12/14 14:03:34;;;;;;;25.57;19.00;;;3.40;16.70;;;;;;2613945;54;20379;-78
2022/12/14 14:22:09;;;;;;;18.30;16.53;;;1.70;32.50;;;;;;2615914;54;20387;-80
2022/12/14 14:27:59;;;;;;;21.23;19.03;;;0.80;44.00;;;;;;2616111;54;20411;-80
2022/12/14 14:33:54;;;;;;;20.87;18.77;;;0.50;51.50;;;;;;2616436;46;20393;-78
2022/12/14 14:39:43;;;;;;;20.83;18.90;;;0.30;54.50;;;;;;2615977;54;20391;-80
2022/12/14 14:42:46;;;;;;;25.90;22.97;;;0.20;57.60;;;;;;2615133;54;20395;-80
2022/12/14 14:51:55;;;;;;;27.10;23.90;;;-0.10;68.30;;;;;;2616210;54;20419;-80
2022/12/14 14:58:03;;;;;;;28.47;23.87;;;-0.20;70.90;;;;;;2616413;54;20993;-79
2022/12/14 15:03:55;;;;;;;31.90;22.73;;;-0.50;77.10;;;;;;2616490;54;20390;-77
2022/12/14 15:14:00;;;;;;;25.53;19.30;;;-0.90;88.20;;;;;;2617948;39;20772;-81
2022/12/14 15:19:49;;;;;;;25.50;19.47;;;-1.10;93.50;;;;;;2617164;54;20929;-78
2022/12/14 15:25:37;;;;;;;20.00;18.00;;;-1.40;96.60;;;;;;2617253;54;20367;-80
2022/12/14 15:38:00;;;;;;;21.80;18.10;;;-2.00;99.90;;;;;;2615475;54;20407;-81
2022/12/14 15:43:49;;;;;;;25.07;19.03;;;-2.10;99.90;;;;;;2615948;54;20934;-78
2022/12/14 15:49:37;;;;;;;24.17;19.67;;;-2.50;99.90;;;;;;2615734;54;20420;-77
2022/12/14 15:55:34;;;;;;;23.77;18.67;;;-2.40;99.90;;;;;;2615724;54;20223;-77
2022/12/14 16:01:25;;;;;;;25.20;19.37;;;-2.70;99.90;;;;;;2615690;54;20515;-77
2022/12/14 16:07:17;;;;;;;29.47;19.83;;;-2.90;99.90;;;;;;2615078;54;20379;-80
2022/12/14 16:19:56;;;;;;;28.00;16.93;;;-3.10;99.90;;;;;;2616917;54;20382;-78
2022/12/14 16:25:57;;;;;;;22.83;17.13;;;-2.70;99.90;;;;;;2616486;54;20380;-79
2022/12/14 16:31:46;;;;;;;26.10;17.93;;;-2.90;99.90;;;;;;2616659;54;20406;-78
2022/12/14 16:37:33;;;;;;;20.13;17.30;;;-3.20;99.90;;;;;;2616301;54;20389;-78
2022/12/14 16:43:26;;;;;;;24.17;18.00;;;-3.20;99.90;;;;;;2616882;54;20860;-77
2022/12/14 16:49:38;;;;;;;23.77;17.70;;;-3.30;99.90;;;;;;2616764;54;20514;-78
2022/12/14 16:55:27;;;;;;;24.97;17.50;;;-3.40;99.90;;;;;;2615524;54;20411;-78
2022/12/14 17:01:16;;;;;;;25.27;17.17;;;-3.60;99.90;;;;;;2616873;54;20366;-79
2022/12/14 17:07:04;;;;;;;25.60;16.80;;;-3.60;99.90;;;;;;2617088;54;20396;-78
2022/12/14 17:09:32;;;;;;;20.37;15.83;;;-3.80;99.90;;;;;;2616443;47;20427;-81
2022/12/14 17:12:00;;;;;;;26.50;18.43;;;-3.90;99.90;;;;;;2616049;47;20174;-78
2022/12/14 17:17:51;;;;;;;21.90;17.00;;;-3.60;99.90;;;;;;2616753;54;20394;-81
2022/12/14 17:23:41;;;;;;;34.20;21.37;;;-3.70;99.90;;;;;;2616951;54;20423;-80
2022/12/14 17:29:32;;;;;;;33.13;21.17;;;-3.50;99.90;;;;;;2616756;54;20362;-78
2022/12/14 17:41:38;;;;;;;32.23;22.20;;;-3.60;99.90;;;;;;2617010;54;20915;-79
2022/12/14 17:47:26;;;;;;;34.80;23.10;;;-4.00;99.90;;;;;;2616388;54;20427;-78
2022/12/14 17:53:16;;;;;;;36.30;21.80;;;-4.00;99.90;;;;;;2615775;54;20227;-79
2022/12/14 17:59:04;;;;;;;34.40;20.93;;;-3.70;99.90;;;;;;2615960;54;20494;-79
2022/12/14 18:04:52;;;;;;;27.27;20.73;;;-3.60;99.90;;;;;;2616708;54;20134;-78
2022/12/14 18:14:02;;;;;;;31.80;20.67;;;-3.80;99.90;;;;;;2616980;54;20358;-78
2022/12/14 18:19:50;;;;;;;35.70;22.57;;;-4.00;99.90;;;;;;2616983;54;20398;-79
2022/12/14 18:25:42;;;;;;;35.90;23.30;;;-4.10;99.90;;;;;;2617017;54;20134;-77
2022/12/14 18:31:35;;;;;;;37.80;23.83;;;-4.10;99.90;;;;;;2616601;54;21429;-81
2022/12/14 18:37:22;;;;;;;30.30;20.20;;;-4.10;99.90;;;;;;2616355;54;20367;-80
2022/12/14 18:49:54;;;;;;;31.03;22.40;;;-4.10;99.90;;;;;;2615300;54;20371;-80
2022/12/14 18:55:42;;;;;;;36.70;26.00;;;-4.50;99.90;;;;;;2615470;54;20268;-78
2022/12/14 19:01:30;;;;;;;37.40;23.23;;;-4.70;99.90;;;;;;2615725;54;21065;-79
2022/12/14 19:07:18;;;;;;;32.93;23.97;;;-4.80;99.90;;;;;;2616929;54;20172;-79
2022/12/14 19:13:05;;;;;;;44.07;23.97;;;-4.90;99.90;;;;;;2614973;54;20927;-80
2022/12/14 19:18:52;;;;;;;28.23;21.30;;;-5.30;99.90;;;;;;2615974;54;20154;-80
2022/12/14 19:24:39;;;;;;;24.30;21.50;;;-5.40;99.90;;;;;;2616833;54;20239;-77
2022/12/14 19:30:27;;;;;;;32.23;21.43;;;-4.90;99.90;;;;;;2615324;39;20500;-76
2022/12/14 19:36:14;;;;;;;36.40;20.30;;;-4.70;99.90;;;;;;2616374;54;20125;-80
2022/12/14 19:42:02;;;;;;;34.73;22.40;;;-4.80;99.90;;;;;;2617106;54;20616;-77
2022/12/14 19:47:51;;;;;;;28.33;21.70;;;-4.50;99.90;;;;;;2616267;54;20126;-80
2022/12/14 19:53:42;;;;;;;35.83;21.70;;;-4.40;99.90;;;;;;2616652;54;20911;-79
2022/12/14 19:59:31;;;;;;;29.50;19.30;;;-4.60;99.90;;;;;;2616398;54;20358;-78
2022/12/14 20:05:20;;;;;;;27.13;20.07;;;-4.50;99.90;;;;;;2616171;54;20374;-81
2022/12/14 20:14:30;;;;;;;31.60;19.87;;;-4.60;99.90;;;;;;2616364;54;20484;-79
2022/12/14 20:20:17;;;;;;;32.37;21.37;;;-4.60;99.90;;;;;;2616720;54;20247;-78
2022/12/14 20:26:11;;;;;;;28.70;20.70;;;-4.60;99.90;;;;;;2617123;54;20628;-78
2022/12/14 20:31:58;;;;;;;30.33;19.20;;;-4.60;99.90;;;;;;2616752;54;20387;-78
2022/12/14 20:37:47;;;;;;;26.83;19.93;;;-4.80;99.90;;;;;;2616896;54;20162;-80
2022/12/14 20:40:51;;;;;;;32.40;20.70;;;-4.70;99.90;;;;;;2616652;54;20495;-79
2022/12/14 20:43:17;;;;;;;37.60;21.33;;;-4.80;99.90;;;;;;2616232;47;20426;-77
2022/12/14 21:14:46;;;;;;;27.20;19.40;;;-5.40;99.90;;;;;;2615477;54;20454;-80
2022/12/14 21:17:33;;;;;;;31.90;23.03;;;-5.50;99.90;;;;;;2614933;54;20429;-78
2022/12/14 21:23:20;;;;;;;46.00;25.17;;;-5.50;99.90;;;;;;2614503;54;20387;-78
2022/12/14 21:32:29;;;;;;;32.23;22.40;;;-5.00;99.90;;;;;;2616076;54;20390;-78
2022/12/14 21:38:18;;;;;;;40.70;23.23;;;-4.80;99.90;;;;;;2615763;54;20202;-77
2022/12/14 21:44:06;;;;;;;38.80;21.17;;;-4.80;99.90;;;;;;2616354;46;20403;-78
2022/12/14 21:49:54;;;;;;;36.23;17.10;;;-4.70;99.90;;;;;;2616979;46;20621;-77
2022/12/14 21:58:14;;;;;;;26.93;21.57;;;-4.70;99.90;;;;;;2616425;39;20774;-77
2022/12/14 22:02:05;;;;;;;37.53;22.67;;;-4.80;99.90;;;;;;2616482;54;20468;-77
2022/12/14 22:07:53;;;;;;;30.73;20.87;;;-4.80;99.90;;;;;;2615926;46;20395;-80
2022/12/14 22:17:32;;;;;;;35.23;20.67;;;-4.80;99.90;;;;;;2616364;46;20430;-76
2022/12/14 22:23:20;;;;;;;29.67;21.73;;;-4.80;99.90;;;;;;2617291;54;20399;-78
2022/12/14 22:29:08;;;;;;;37.00;23.47;;;-4.80;99.90;;;;;;2617069;54;20498;-77
2022/12/14 22:34:55;;;;;;;32.33;20.40;;;-4.90;99.90;;;;;;2617225;54;20909;-79
2022/12/14 22:40:43;;;;;;;31.43;21.50;;;-5.00;99.90;;;;;;2616935;54;20118;-78
2022/12/14 22:46:32;;;;;;;31.03;21.03;;;-5.00;99.90;;;;;;2617184;54;20129;-78
2022/12/14 22:52:19;;;;;;;42.60;22.07;;;-5.30;99.90;;;;;;2617277;54;20367;-78
2022/12/14 22:58:10;;;;;;;39.17;22.73;;;-5.40;99.90;;;;;;2617136;54;20118;-76
2022/12/14 23:03:58;;;;;;;40.37;22.70;;;-5.20;99.90;;;;;;2616962;54;20408;-77
